sensor_id;sensor_type;location;lat;lon;timestamp;P1;durP1;ratioP1;P2;durP2;ratioP2
23142;SDS011;11740;51.168;4.112;2024-01-30T00:00:05;8.27;;;6.40;;
23142;SDS011;11740;51.168;4.112;2024-01-30T00:02:34;8.88;;;6.68;;
23142;SDS011;11740;51.168;4.112;2024-01-30T00:05:01;10.10;;;6.60;;
23142;SDS011;11740;51.168;4.112;2024-01-30T00:07:30;9.70;;;6.93;;
23142;SDS011;11740;51.168;4.112;2024-01-30T00:09:58;9.18;;;6.45;;
23142;SDS011;11740;51.168;4.112;2024-01-30T00:12:25;9.05;;;6.38;;
23142;SDS011;11740;51.168;4.112;2024-01-30T00:14:53;9.50;;;6.50;;
23142;SDS011;11740;51.168;4.112;2024-01-30T00:17:21;8.55;;;6.50;;
23142;SDS011;11740;51.168;4.112;2024-01-30T00:19:48;9.00;;;6.97;;
23142;SDS011;11740;51.168;4.112;2024-01-30T00:22:16;7.88;;;6.50;;
23142;SDS011;11740;51.168;4.112;2024-01-30T00:24:43;10.65;;;6.70;;
23142;SDS011;11740;51.168;4.112;2024-01-30T00:27:11;8.60;;;6.10;;
23142;SDS011;11740;51.168;4.112;2024-01-30T00:29:38;8.98;;;6.47;;
23142;SDS011;11740;51.168;4.112;2024-01-30T00:32:06;8.23;;;6.50;;
23142;SDS011;11740;51.168;4.112;2024-01-30T00:34:33;8.75;;;6.53;;
23142;SDS011;11740;51.168;4.112;2024-01-30T00:37:01;8.43;;;6.75;;
23142;SDS011;11740;51.168;4.112;2024-01-30T00:39:28;10.30;;;7.03;;
23142;SDS011;11740;51.168;4.112;2024-01-30T00:41:56;8.10;;;6.22;;
23142;SDS011;11740;51.168;4.112;2024-01-30T00:44:23;8.65;;;6.38;;
23142;SDS011;11740;51.168;4.112;2024-01-30T00:46:51;16.77;;;6.35;;
23142;SDS011;11740;51.168;4.112;2024-01-30T00:49:18;7.78;;;6.43;;
23142;SDS011;11740;51.168;4.112;2024-01-30T00:51:46;7.85;;;5.95;;
23142;SDS011;11740;51.168;4.112;2024-01-30T00:54:13;9.15;;;6.93;;
23142;SDS011;11740;51.168;4.112;2024-01-30T00:56:41;10.55;;;6.22;;
23142;SDS011;11740;51.168;4.112;2024-01-30T00:59:09;10.60;;;6.85;;
23142;SDS011;11740;51.168;4.112;2024-01-30T01:01:37;9.88;;;6.90;;
23142;SDS011;11740;51.168;4.112;2024-01-30T01:04:04;8.68;;;6.63;;
23142;SDS011;11740;51.168;4.112;2024-01-30T01:06:33;10.95;;;6.57;;
23142;SDS011;11740;51.168;4.112;2024-01-30T01:09:01;8.82;;;6.65;;
23142;SDS011;11740;51.168;4.112;2024-01-30T01:11:30;8.27;;;6.40;;
23142;SDS011;11740;51.168;4.112;2024-01-30T01:13:58;8.73;;;6.20;;
23142;SDS011;11740;51.168;4.112;2024-01-30T01:16:25;9.38;;;6.55;;
23142;SDS011;11740;51.168;4.112;2024-01-30T01:18:53;9.82;;;7.22;;
23142;SDS011;11740;51.168;4.112;2024-01-30T01:21:20;9.40;;;7.15;;
23142;SDS011;11740;51.168;4.112;2024-01-30T01:23:48;9.20;;;6.63;;
23142;SDS011;11740;51.168;4.112;2024-01-30T01:26:15;10.02;;;6.65;;
23142;SDS011;11740;51.168;4.112;2024-01-30T01:28:43;12.43;;;6.95;;
23142;SDS011;11740;51.168;4.112;2024-01-30T01:31:10;10.70;;;7.35;;
23142;SDS011;11740;51.168;4.112;2024-01-30T01:33:38;8.05;;;5.78;;
23142;SDS011;11740;51.168;4.112;2024-01-30T01:36:06;10.15;;;6.53;;
23142;SDS011;11740;51.168;4.112;2024-01-30T01:38:33;8.68;;;6.40;;
23142;SDS011;11740;51.168;4.112;2024-01-30T01:41:01;8.63;;;6.50;;
23142;SDS011;11740;51.168;4.112;2024-01-30T01:43:28;8.68;;;6.28;;
23142;SDS011;11740;51.168;4.112;2024-01-30T01:45:56;8.10;;;6.05;;
23142;SDS011;11740;51.168;4.112;2024-01-30T01:48:24;8.63;;;6.65;;
23142;SDS011;11740;51.168;4.112;2024-01-30T01:50:52;8.90;;;6.25;;
23142;SDS011;11740;51.168;4.112;2024-01-30T01:53:20;8.35;;;6.55;;
23142;SDS011;11740;51.168;4.112;2024-01-30T01:55:47;11.68;;;6.93;;
23142;SDS011;11740;51.168;4.112;2024-01-30T01:58:15;10.02;;;6.57;;
23142;SDS011;11740;51.168;4.112;2024-01-30T02:00:43;9.65;;;6.53;;
23142;SDS011;11740;51.168;4.112;2024-01-30T02:03:10;7.55;;;6.35;;
23142;SDS011;11740;51.168;4.112;2024-01-30T02:05:39;9.85;;;5.80;;
23142;SDS011;11740;51.168;4.112;2024-01-30T02:08:07;8.13;;;6.25;;
23142;SDS011;11740;51.168;4.112;2024-01-30T02:10:35;10.80;;;6.32;;
23142;SDS011;11740;51.168;4.112;2024-01-30T02:13:03;8.88;;;6.40;;
23142;SDS011;11740;51.168;4.112;2024-01-30T02:15:31;9.63;;;6.80;;
23142;SDS011;11740;51.168;4.112;2024-01-30T02:17:58;10.30;;;6.72;;
23142;SDS011;11740;51.168;4.112;2024-01-30T02:20:25;9.05;;;6.38;;
23142;SDS011;11740;51.168;4.112;2024-01-30T02:22:57;9.13;;;6.65;;
23142;SDS011;11740;51.168;4.112;2024-01-30T02:25:31;8.88;;;6.30;;
23142;SDS011;11740;51.168;4.112;2024-01-30T02:28:11;9.13;;;6.70;;
23142;SDS011;11740;51.168;4.112;2024-01-30T02:30:39;8.13;;;6.40;;
23142;SDS011;11740;51.168;4.112;2024-01-30T02:33:07;9.05;;;5.90;;
23142;SDS011;11740;51.168;4.112;2024-01-30T02:35:34;8.73;;;6.35;;
23142;SDS011;11740;51.168;4.112;2024-01-30T02:38:01;7.22;;;6.00;;
23142;SDS011;11740;51.168;4.112;2024-01-30T02:40:29;9.55;;;6.80;;
23142;SDS011;11740;51.168;4.112;2024-01-30T02:43:01;8.32;;;5.93;;
23142;SDS011;11740;51.168;4.112;2024-01-30T02:45:29;8.02;;;6.13;;
23142;SDS011;11740;51.168;4.112;2024-01-30T02:47:56;8.85;;;6.53;;
23142;SDS011;11740;51.168;4.112;2024-01-30T02:50:24;6.90;;;5.90;;
23142;SDS011;11740;51.168;4.112;2024-01-30T02:52:51;9.73;;;6.65;;
23142;SDS011;11740;51.168;4.112;2024-01-30T02:55:19;8.60;;;6.53;;
23142;SDS011;11740;51.168;4.112;2024-01-30T02:57:46;9.75;;;6.55;;
23142;SDS011;11740;51.168;4.112;2024-01-30T03:00:14;7.57;;;6.07;;
23142;SDS011;11740;51.168;4.112;2024-01-30T03:02:41;8.68;;;6.07;;
23142;SDS011;11740;51.168;4.112;2024-01-30T03:05:09;10.90;;;6.00;;
23142;SDS011;11740;51.168;4.112;2024-01-30T03:07:36;7.85;;;5.75;;
23142;SDS011;11740;51.168;4.112;2024-01-30T03:10:04;8.88;;;5.97;;
23142;SDS011;11740;51.168;4.112;2024-01-30T03:12:32;8.63;;;6.05;;
23142;SDS011;11740;51.168;4.112;2024-01-30T03:15:00;8.88;;;6.03;;
23142;SDS011;11740;51.168;4.112;2024-01-30T03:17:27;10.13;;;5.80;;
23142;SDS011;11740;51.168;4.112;2024-01-30T03:19:55;7.05;;;5.97;;
23142;SDS011;11740;51.168;4.112;2024-01-30T03:22:22;10.88;;;5.97;;
23142;SDS011;11740;51.168;4.112;2024-01-30T03:24:50;8.13;;;6.10;;
23142;SDS011;11740;51.168;4.112;2024-01-30T03:27:17;8.35;;;6.20;;
23142;SDS011;11740;51.168;4.112;2024-01-30T03:29:45;8.05;;;6.20;;
23142;SDS011;11740;51.168;4.112;2024-01-30T03:32:12;9.60;;;6.55;;
23142;SDS011;11740;51.168;4.112;2024-01-30T03:34:39;8.48;;;6.15;;
23142;SDS011;11740;51.168;4.112;2024-01-30T03:37:07;10.13;;;6.22;;
23142;SDS011;11740;51.168;4.112;2024-01-30T03:39:34;9.45;;;6.03;;
23142;SDS011;11740;51.168;4.112;2024-01-30T03:42:03;9.77;;;6.40;;
23142;SDS011;11740;51.168;4.112;2024-01-30T03:44:30;8.70;;;6.22;;
23142;SDS011;11740;51.168;4.112;2024-01-30T03:46:57;9.20;;;6.47;;
23142;SDS011;11740;51.168;4.112;2024-01-30T03:49:25;9.60;;;6.25;;
23142;SDS011;11740;51.168;4.112;2024-01-30T03:51:52;8.07;;;6.05;;
23142;SDS011;11740;51.168;4.112;2024-01-30T03:54:20;8.40;;;6.22;;
23142;SDS011;11740;51.168;4.112;2024-01-30T03:56:47;9.73;;;6.60;;
23142;SDS011;11740;51.168;4.112;2024-01-30T03:59:14;11.95;;;6.95;;
23142;SDS011;11740;51.168;4.112;2024-01-30T04:01:46;10.02;;;6.75;;
23142;SDS011;11740;51.168;4.112;2024-01-30T04:04:13;7.25;;;5.90;;
23142;SDS011;11740;51.168;4.112;2024-01-30T04:06:41;7.18;;;6.05;;
23142;SDS011;11740;51.168;4.112;2024-01-30T04:09:08;8.40;;;6.10;;
23142;SDS011;11740;51.168;4.112;2024-01-30T04:11:35;7.75;;;5.65;;
23142;SDS011;11740;51.168;4.112;2024-01-30T04:14:03;7.63;;;5.90;;
23142;SDS011;11740;51.168;4.112;2024-01-30T04:16:30;9.00;;;6.90;;
23142;SDS011;11740;51.168;4.112;2024-01-30T04:18:58;10.60;;;6.55;;
23142;SDS011;11740;51.168;4.112;2024-01-30T04:21:26;7.20;;;5.45;;
23142;SDS011;11740;51.168;4.112;2024-01-30T04:23:53;10.15;;;6.57;;
23142;SDS011;11740;51.168;4.112;2024-01-30T04:26:21;8.40;;;6.30;;
23142;SDS011;11740;51.168;4.112;2024-01-30T04:28:48;10.85;;;6.70;;
23142;SDS011;11740;51.168;4.112;2024-01-30T04:31:15;8.25;;;5.93;;
23142;SDS011;11740;51.168;4.112;2024-01-30T04:33:43;7.95;;;5.97;;
23142;SDS011;11740;51.168;4.112;2024-01-30T04:36:10;7.80;;;6.45;;
23142;SDS011;11740;51.168;4.112;2024-01-30T04:38:38;9.80;;;6.25;;
23142;SDS011;11740;51.168;4.112;2024-01-30T04:41:05;11.00;;;6.63;;
23142;SDS011;11740;51.168;4.112;2024-01-30T04:43:33;9.35;;;6.38;;
23142;SDS011;11740;51.168;4.112;2024-01-30T04:46:00;7.90;;;6.03;;
23142;SDS011;11740;51.168;4.112;2024-01-30T04:48:28;11.35;;;6.32;;
23142;SDS011;11740;51.168;4.112;2024-01-30T04:50:56;8.50;;;6.18;;
23142;SDS011;11740;51.168;4.112;2024-01-30T04:53:24;9.50;;;6.30;;
23142;SDS011;11740;51.168;4.112;2024-01-30T04:55:51;8.75;;;6.05;;
23142;SDS011;11740;51.168;4.112;2024-01-30T04:58:19;8.50;;;6.13;;
23142;SDS011;11740;51.168;4.112;2024-01-30T05:00:46;8.73;;;6.32;;
23142;SDS011;11740;51.168;4.112;2024-01-30T05:03:20;11.18;;;6.57;;
23142;SDS011;11740;51.168;4.112;2024-01-30T05:05:50;9.25;;;6.20;;
23142;SDS011;11740;51.168;4.112;2024-01-30T05:08:17;10.38;;;7.03;;
23142;SDS011;11740;51.168;4.112;2024-01-30T05:10:44;8.98;;;6.03;;
23142;SDS011;11740;51.168;4.112;2024-01-30T05:13:12;7.65;;;6.10;;
23142;SDS011;11740;51.168;4.112;2024-01-30T05:15:40;10.43;;;6.30;;
23142;SDS011;11740;51.168;4.112;2024-01-30T05:18:07;8.13;;;5.70;;
23142;SDS011;11740;51.168;4.112;2024-01-30T05:20:35;8.88;;;6.20;;
23142;SDS011;11740;51.168;4.112;2024-01-30T05:23:02;8.05;;;6.22;;
23142;SDS011;11740;51.168;4.112;2024-01-30T05:25:30;9.18;;;5.93;;
23142;SDS011;11740;51.168;4.112;2024-01-30T05:27:57;8.10;;;5.90;;
23142;SDS011;11740;51.168;4.112;2024-01-30T05:30:24;10.93;;;5.63;;
23142;SDS011;11740;51.168;4.112;2024-01-30T05:32:52;7.93;;;5.40;;
23142;SDS011;11740;51.168;4.112;2024-01-30T05:35:19;10.68;;;6.45;;
23142;SDS011;11740;51.168;4.112;2024-01-30T05:37:48;7.57;;;5.72;;
23142;SDS011;11740;51.168;4.112;2024-01-30T05:40:18;7.63;;;6.18;;
23142;SDS011;11740;51.168;4.112;2024-01-30T05:42:45;9.02;;;6.13;;
23142;SDS011;11740;51.168;4.112;2024-01-30T05:45:13;10.23;;;5.85;;
23142;SDS011;11740;51.168;4.112;2024-01-30T05:47:40;10.48;;;6.43;;
23142;SDS011;11740;51.168;4.112;2024-01-30T05:50:09;8.20;;;5.72;;
23142;SDS011;11740;51.168;4.112;2024-01-30T05:52:36;8.48;;;5.82;;
23142;SDS011;11740;51.168;4.112;2024-01-30T05:55:04;8.20;;;5.93;;
23142;SDS011;11740;51.168;4.112;2024-01-30T05:57:32;8.80;;;6.10;;
23142;SDS011;11740;51.168;4.112;2024-01-30T05:59:59;7.95;;;6.43;;
23142;SDS011;11740;51.168;4.112;2024-01-30T06:02:27;8.60;;;6.38;;
23142;SDS011;11740;51.168;4.112;2024-01-30T06:04:54;7.50;;;6.47;;
23142;SDS011;11740;51.168;4.112;2024-01-30T06:07:21;10.95;;;6.13;;
23142;SDS011;11740;51.168;4.112;2024-01-30T06:09:49;10.32;;;6.10;;
23142;SDS011;11740;51.168;4.112;2024-01-30T06:12:16;10.82;;;6.50;;
23142;SDS011;11740;51.168;4.112;2024-01-30T06:14:44;8.52;;;6.10;;
23142;SDS011;11740;51.168;4.112;2024-01-30T06:17:13;19.25;;;6.95;;
23142;SDS011;11740;51.168;4.112;2024-01-30T06:19:40;7.15;;;6.00;;
23142;SDS011;11740;51.168;4.112;2024-01-30T06:22:08;8.45;;;5.90;;
23142;SDS011;11740;51.168;4.112;2024-01-30T06:24:35;8.77;;;6.15;;
23142;SDS011;11740;51.168;4.112;2024-01-30T06:27:02;15.27;;;7.05;;
23142;SDS011;11740;51.168;4.112;2024-01-30T06:29:30;10.05;;;6.43;;
23142;SDS011;11740;51.168;4.112;2024-01-30T06:31:57;9.80;;;6.50;;
23142;SDS011;11740;51.168;4.112;2024-01-30T06:34:25;8.88;;;6.18;;
23142;SDS011;11740;51.168;4.112;2024-01-30T06:36:53;10.50;;;6.28;;
23142;SDS011;11740;51.168;4.112;2024-01-30T06:39:20;8.60;;;6.40;;
23142;SDS011;11740;51.168;4.112;2024-01-30T06:41:48;11.60;;;6.50;;
23142;SDS011;11740;51.168;4.112;2024-01-30T06:44:15;12.05;;;6.55;;
23142;SDS011;11740;51.168;4.112;2024-01-30T06:46:43;10.07;;;6.63;;
23142;SDS011;11740;51.168;4.112;2024-01-30T06:49:10;12.38;;;6.38;;
23142;SDS011;11740;51.168;4.112;2024-01-30T06:51:37;11.80;;;6.63;;
23142;SDS011;11740;51.168;4.112;2024-01-30T06:54:05;9.60;;;6.05;;
23142;SDS011;11740;51.168;4.112;2024-01-30T06:56:33;9.23;;;6.22;;
23142;SDS011;11740;51.168;4.112;2024-01-30T06:59:00;10.73;;;6.65;;
23142;SDS011;11740;51.168;4.112;2024-01-30T07:01:28;10.32;;;6.25;;
23142;SDS011;11740;51.168;4.112;2024-01-30T07:03:57;10.82;;;6.32;;
23142;SDS011;11740;51.168;4.112;2024-01-30T07:06:24;10.10;;;7.18;;
23142;SDS011;11740;51.168;4.112;2024-01-30T07:08:52;8.63;;;6.63;;
23142;SDS011;11740;51.168;4.112;2024-01-30T07:11:19;9.52;;;6.57;;
23142;SDS011;11740;51.168;4.112;2024-01-30T07:13:48;12.10;;;7.55;;
23142;SDS011;11740;51.168;4.112;2024-01-30T07:16:18;8.35;;;6.53;;
23142;SDS011;11740;51.168;4.112;2024-01-30T07:18:46;10.90;;;6.88;;
23142;SDS011;11740;51.168;4.112;2024-01-30T07:21:14;8.93;;;6.85;;
23142;SDS011;11740;51.168;4.112;2024-01-30T07:23:42;9.43;;;6.57;;
23142;SDS011;11740;51.168;4.112;2024-01-30T07:26:09;10.38;;;6.65;;
23142;SDS011;11740;51.168;4.112;2024-01-30T07:28:37;10.30;;;6.97;;
23142;SDS011;11740;51.168;4.112;2024-01-30T07:31:04;11.68;;;7.05;;
23142;SDS011;11740;51.168;4.112;2024-01-30T07:33:32;11.55;;;6.93;;
23142;SDS011;11740;51.168;4.112;2024-01-30T07:36:00;9.75;;;6.20;;
23142;SDS011;11740;51.168;4.112;2024-01-30T07:38:28;11.23;;;7.03;;
23142;SDS011;11740;51.168;4.112;2024-01-30T07:40:58;11.20;;;7.10;;
23142;SDS011;11740;51.168;4.112;2024-01-30T07:43:25;13.07;;;6.80;;
23142;SDS011;11740;51.168;4.112;2024-01-30T07:45:52;9.43;;;6.85;;
23142;SDS011;11740;51.168;4.112;2024-01-30T07:48:20;10.98;;;6.80;;
23142;SDS011;11740;51.168;4.112;2024-01-30T07:50:47;10.15;;;6.90;;
23142;SDS011;11740;51.168;4.112;2024-01-30T07:53:15;11.73;;;6.50;;
23142;SDS011;11740;51.168;4.112;2024-01-30T07:55:42;11.60;;;6.70;;
23142;SDS011;11740;51.168;4.112;2024-01-30T07:58:13;13.30;;;7.53;;
23142;SDS011;11740;51.168;4.112;2024-01-30T08:00:40;10.07;;;6.80;;
23142;SDS011;11740;51.168;4.112;2024-01-30T08:03:08;13.77;;;7.15;;
23142;SDS011;11740;51.168;4.112;2024-01-30T08:05:35;12.40;;;7.35;;
23142;SDS011;11740;51.168;4.112;2024-01-30T08:08:05;10.55;;;6.65;;
23142;SDS011;11740;51.168;4.112;2024-01-30T08:10:33;9.45;;;6.95;;
23142;SDS011;11740;51.168;4.112;2024-01-30T08:13:01;13.07;;;7.03;;
23142;SDS011;11740;51.168;4.112;2024-01-30T08:15:28;8.55;;;6.63;;
23142;SDS011;11740;51.168;4.112;2024-01-30T08:17:56;10.20;;;6.57;;
23142;SDS011;11740;51.168;4.112;2024-01-30T08:20:25;10.32;;;6.65;;
23142;SDS011;11740;51.168;4.112;2024-01-30T08:22:52;12.27;;;6.55;;
23142;SDS011;11740;51.168;4.112;2024-01-30T08:25:20;10.85;;;7.00;;
23142;SDS011;11740;51.168;4.112;2024-01-30T08:27:48;12.32;;;7.13;;
23142;SDS011;11740;51.168;4.112;2024-01-30T08:30:16;12.65;;;7.13;;
23142;SDS011;11740;51.168;4.112;2024-01-30T08:32:43;10.48;;;6.45;;
23142;SDS011;11740;51.168;4.112;2024-01-30T08:35:11;10.45;;;6.75;;
23142;SDS011;11740;51.168;4.112;2024-01-30T08:37:41;13.70;;;7.53;;
23142;SDS011;11740;51.168;4.112;2024-01-30T08:40:09;12.25;;;7.43;;
23142;SDS011;11740;51.168;4.112;2024-01-30T08:42:37;11.30;;;7.35;;
23142;SDS011;11740;51.168;4.112;2024-01-30T08:45:04;10.65;;;7.15;;
23142;SDS011;11740;51.168;4.112;2024-01-30T08:47:32;13.00;;;7.20;;
23142;SDS011;11740;51.168;4.112;2024-01-30T08:50:00;10.65;;;7.75;;
23142;SDS011;11740;51.168;4.112;2024-01-30T08:52:27;13.88;;;7.22;;
23142;SDS011;11740;51.168;4.112;2024-01-30T08:54:55;10.77;;;6.80;;
23142;SDS011;11740;51.168;4.112;2024-01-30T08:57:22;11.35;;;7.18;;
23142;SDS011;11740;51.168;4.112;2024-01-30T08:59:50;12.38;;;7.40;;
23142;SDS011;11740;51.168;4.112;2024-01-30T09:02:17;12.95;;;7.88;;
23142;SDS011;11740;51.168;4.112;2024-01-30T09:04:45;10.80;;;7.20;;
23142;SDS011;11740;51.168;4.112;2024-01-30T09:07:12;11.60;;;7.40;;
23142;SDS011;11740;51.168;4.112;2024-01-30T09:09:40;18.05;;;7.53;;
23142;SDS011;11740;51.168;4.112;2024-01-30T09:12:08;14.70;;;7.60;;
23142;SDS011;11740;51.168;4.112;2024-01-30T09:14:38;15.30;;;7.88;;
23142;SDS011;11740;51.168;4.112;2024-01-30T09:17:09;15.48;;;8.32;;
23142;SDS011;11740;51.168;4.112;2024-01-30T09:19:37;12.95;;;8.10;;
23142;SDS011;11740;51.168;4.112;2024-01-30T09:22:05;25.55;;;8.40;;
23142;SDS011;11740;51.168;4.112;2024-01-30T09:24:32;20.67;;;7.85;;
23142;SDS011;11740;51.168;4.112;2024-01-30T09:27:00;48.55;;;10.20;;
23142;SDS011;11740;51.168;4.112;2024-01-30T09:29:27;14.02;;;7.63;;
23142;SDS011;11740;51.168;4.112;2024-01-30T09:31:55;11.85;;;7.13;;
23142;SDS011;11740;51.168;4.112;2024-01-30T09:34:22;14.40;;;7.40;;
23142;SDS011;11740;51.168;4.112;2024-01-30T09:36:50;14.65;;;7.03;;
23142;SDS011;11740;51.168;4.112;2024-01-30T09:39:17;14.55;;;7.32;;
23142;SDS011;11740;51.168;4.112;2024-01-30T09:41:51;13.73;;;7.18;;
23142;SDS011;11740;51.168;4.112;2024-01-30T09:44:43;20.27;;;7.78;;
23142;SDS011;11740;51.168;4.112;2024-01-30T09:47:11;16.35;;;7.10;;
23142;SDS011;11740;51.168;4.112;2024-01-30T09:49:38;14.65;;;6.95;;
23142;SDS011;11740;51.168;4.112;2024-01-30T09:52:07;15.93;;;6.90;;
23142;SDS011;11740;51.168;4.112;2024-01-30T09:54:35;18.02;;;7.03;;
23142;SDS011;11740;51.168;4.112;2024-01-30T09:57:03;10.38;;;6.55;;
23142;SDS011;11740;51.168;4.112;2024-01-30T09:59:31;13.70;;;6.68;;
23142;SDS011;11740;51.168;4.112;2024-01-30T10:01:59;11.88;;;6.50;;
23142;SDS011;11740;51.168;4.112;2024-01-30T10:04:27;12.27;;;6.45;;
23142;SDS011;11740;51.168;4.112;2024-01-30T10:06:54;14.35;;;7.28;;
23142;SDS011;11740;51.168;4.112;2024-01-30T10:09:22;14.23;;;6.32;;
23142;SDS011;11740;51.168;4.112;2024-01-30T10:11:50;10.70;;;5.82;;
23142;SDS011;11740;51.168;4.112;2024-01-30T10:14:18;10.00;;;5.15;;
23142;SDS011;11740;51.168;4.112;2024-01-30T10:16:46;11.45;;;5.10;;
23142;SDS011;11740;51.168;4.112;2024-01-30T10:19:13;11.48;;;4.45;;
23142;SDS011;11740;51.168;4.112;2024-01-30T10:21:41;8.25;;;3.83;;
23142;SDS011;11740;51.168;4.112;2024-01-30T10:24:09;8.93;;;3.70;;
23142;SDS011;11740;51.168;4.112;2024-01-30T10:26:40;7.53;;;2.53;;
23142;SDS011;11740;51.168;4.112;2024-01-30T10:29:09;9.60;;;3.00;;
23142;SDS011;11740;51.168;4.112;2024-01-30T10:31:37;7.20;;;2.30;;
23142;SDS011;11740;51.168;4.112;2024-01-30T10:34:05;4.97;;;2.05;;
23142;SDS011;11740;51.168;4.112;2024-01-30T10:36:45;9.88;;;2.45;;
23142;SDS011;11740;51.168;4.112;2024-01-30T10:39:14;10.90;;;2.33;;
23142;SDS011;11740;51.168;4.112;2024-01-30T10:41:43;5.85;;;1.88;;
23142;SDS011;11740;51.168;4.112;2024-01-30T10:44:11;4.50;;;1.40;;
23142;SDS011;11740;51.168;4.112;2024-01-30T10:46:39;5.93;;;1.30;;
23142;SDS011;11740;51.168;4.112;2024-01-30T10:49:09;6.05;;;1.52;;
23142;SDS011;11740;51.168;4.112;2024-01-30T10:51:37;6.50;;;1.20;;
23142;SDS011;11740;51.168;4.112;2024-01-30T10:54:05;2.38;;;1.10;;
23142;SDS011;11740;51.168;4.112;2024-01-30T10:56:33;3.33;;;0.70;;
23142;SDS011;11740;51.168;4.112;2024-01-30T10:59:01;1.95;;;0.80;;
23142;SDS011;11740;51.168;4.112;2024-01-30T11:01:30;3.70;;;0.63;;
23142;SDS011;11740;51.168;4.112;2024-01-30T11:03:58;5.38;;;0.80;;
23142;SDS011;11740;51.168;4.112;2024-01-30T11:06:25;6.45;;;0.80;;
23142;SDS011;11740;51.168;4.112;2024-01-30T11:09:02;3.05;;;0.60;;
23142;SDS011;11740;51.168;4.112;2024-01-30T11:11:51;2.22;;;0.60;;
23142;SDS011;11740;51.168;4.112;2024-01-30T11:14:27;4.15;;;0.85;;
23142;SDS011;11740;51.168;4.112;2024-01-30T11:16:59;4.68;;;1.02;;
23142;SDS011;11740;51.168;4.112;2024-01-30T11:19:27;4.30;;;0.82;;
23142;SDS011;11740;51.168;4.112;2024-01-30T11:21:58;4.47;;;1.40;;
23142;SDS011;11740;51.168;4.112;2024-01-30T11:24:27;5.45;;;1.10;;
23142;SDS011;11740;51.168;4.112;2024-01-30T11:27:00;7.38;;;1.52;;
23142;SDS011;11740;51.168;4.112;2024-01-30T11:29:28;4.13;;;1.38;;
23142;SDS011;11740;51.168;4.112;2024-01-30T11:31:59;5.75;;;1.23;;
23142;SDS011;11740;51.168;4.112;2024-01-30T11:34:27;4.97;;;1.15;;
23142;SDS011;11740;51.168;4.112;2024-01-30T11:36:58;3.03;;;0.90;;
23142;SDS011;11740;51.168;4.112;2024-01-30T11:39:29;4.03;;;1.33;;
23142;SDS011;11740;51.168;4.112;2024-01-30T11:41:57;3.65;;;1.05;;
23142;SDS011;11740;51.168;4.112;2024-01-30T11:44:25;4.15;;;1.20;;
23142;SDS011;11740;51.168;4.112;2024-01-30T11:46:53;4.43;;;1.35;;
23142;SDS011;11740;51.168;4.112;2024-01-30T11:49:20;7.80;;;1.60;;
23142;SDS011;11740;51.168;4.112;2024-01-30T11:51:48;8.73;;;1.50;;
23142;SDS011;11740;51.168;4.112;2024-01-30T11:54:16;9.27;;;1.40;;
23142;SDS011;11740;51.168;4.112;2024-01-30T11:56:43;5.45;;;1.20;;
23142;SDS011;11740;51.168;4.112;2024-01-30T11:59:11;7.63;;;1.30;;
23142;SDS011;11740;51.168;4.112;2024-01-30T12:01:38;6.20;;;1.10;;
23142;SDS011;11740;51.168;4.112;2024-01-30T12:04:06;10.68;;;1.60;;
23142;SDS011;11740;51.168;4.112;2024-01-30T12:06:36;6.20;;;1.52;;
23142;SDS011;11740;51.168;4.112;2024-01-30T12:09:04;5.47;;;1.33;;
23142;SDS011;11740;51.168;4.112;2024-01-30T12:11:44;4.93;;;1.50;;
23142;SDS011;11740;51.168;4.112;2024-01-30T12:14:12;6.43;;;1.20;;
23142;SDS011;11740;51.168;4.112;2024-01-30T12:16:39;7.85;;;1.48;;
23142;SDS011;11740;51.168;4.112;2024-01-30T12:19:07;5.93;;;1.63;;
23142;SDS011;11740;51.168;4.112;2024-01-30T12:21:35;6.90;;;1.40;;
23142;SDS011;11740;51.168;4.112;2024-01-30T12:24:04;6.18;;;1.20;;
23142;SDS011;11740;51.168;4.112;2024-01-30T12:26:33;9.38;;;1.40;;
23142;SDS011;11740;51.168;4.112;2024-01-30T12:29:03;5.93;;;1.13;;
23142;SDS011;11740;51.168;4.112;2024-01-30T12:31:32;5.68;;;1.35;;
23142;SDS011;11740;51.168;4.112;2024-01-30T12:34:00;6.00;;;1.55;;
23142;SDS011;11740;51.168;4.112;2024-01-30T12:36:28;4.47;;;1.08;;
23142;SDS011;11740;51.168;4.112;2024-01-30T12:38:59;6.57;;;1.38;;
23142;SDS011;11740;51.168;4.112;2024-01-30T12:41:27;6.20;;;1.20;;
23142;SDS011;11740;51.168;4.112;2024-01-30T12:43:57;9.60;;;1.35;;
23142;SDS011;11740;51.168;4.112;2024-01-30T12:46:27;9.40;;;1.10;;
23142;SDS011;11740;51.168;4.112;2024-01-30T12:48:55;6.00;;;1.17;;
23142;SDS011;11740;51.168;4.112;2024-01-30T12:51:23;5.40;;;1.13;;
23142;SDS011;11740;51.168;4.112;2024-01-30T12:53:51;3.97;;;0.88;;
23142;SDS011;11740;51.168;4.112;2024-01-30T12:56:18;6.35;;;1.48;;
23142;SDS011;11740;51.168;4.112;2024-01-30T12:58:46;5.90;;;1.30;;
23142;SDS011;11740;51.168;4.112;2024-01-30T13:01:18;6.63;;;1.00;;
23142;SDS011;11740;51.168;4.112;2024-01-30T13:03:45;5.28;;;1.20;;
23142;SDS011;11740;51.168;4.112;2024-01-30T13:06:13;4.93;;;1.08;;
23142;SDS011;11740;51.168;4.112;2024-01-30T13:08:41;5.15;;;1.20;;
23142;SDS011;11740;51.168;4.112;2024-01-30T13:11:08;4.53;;;0.90;;
23142;SDS011;11740;51.168;4.112;2024-01-30T13:13:46;3.13;;;0.95;;
23142;SDS011;11740;51.168;4.112;2024-01-30T13:16:14;8.82;;;1.45;;
23142;SDS011;11740;51.168;4.112;2024-01-30T13:18:43;7.85;;;1.02;;
23142;SDS011;11740;51.168;4.112;2024-01-30T13:21:10;5.97;;;1.40;;
23142;SDS011;11740;51.168;4.112;2024-01-30T13:23:38;4.30;;;1.13;;
23142;SDS011;11740;51.168;4.112;2024-01-30T13:26:06;4.53;;;1.23;;
23142;SDS011;11740;51.168;4.112;2024-01-30T13:28:34;2.85;;;0.82;;
23142;SDS011;11740;51.168;4.112;2024-01-30T13:31:01;5.07;;;1.20;;
23142;SDS011;11740;51.168;4.112;2024-01-30T13:33:29;5.88;;;0.90;;
23142;SDS011;11740;51.168;4.112;2024-01-30T13:35:56;3.25;;;1.02;;
23142;SDS011;11740;51.168;4.112;2024-01-30T13:38:25;4.68;;;1.10;;
23142;SDS011;11740;51.168;4.112;2024-01-30T13:40:52;7.03;;;1.40;;
23142;SDS011;11740;51.168;4.112;2024-01-30T13:43:20;5.25;;;1.30;;
23142;SDS011;11740;51.168;4.112;2024-01-30T13:45:47;6.80;;;1.30;;
23142;SDS011;11740;51.168;4.112;2024-01-30T13:48:17;6.80;;;1.10;;
23142;SDS011;11740;51.168;4.112;2024-01-30T13:50:45;5.55;;;1.20;;
23142;SDS011;11740;51.168;4.112;2024-01-30T13:53:12;4.93;;;1.52;;
23142;SDS011;11740;51.168;4.112;2024-01-30T13:55:40;5.07;;;1.33;;
23142;SDS011;11740;51.168;4.112;2024-01-30T13:58:08;6.78;;;1.38;;
23142;SDS011;11740;51.168;4.112;2024-01-30T14:00:35;6.65;;;1.33;;
23142;SDS011;11740;51.168;4.112;2024-01-30T14:03:03;7.78;;;1.52;;
23142;SDS011;11740;51.168;4.112;2024-01-30T14:05:31;6.45;;;1.65;;
23142;SDS011;11740;51.168;4.112;2024-01-30T14:07:59;4.97;;;1.10;;
23142;SDS011;11740;51.168;4.112;2024-01-30T14:10:27;7.88;;;1.80;;
23142;SDS011;11740;51.168;4.112;2024-01-30T14:12:54;5.80;;;1.67;;
23142;SDS011;11740;51.168;4.112;2024-01-30T14:15:22;5.00;;;1.40;;
23142;SDS011;11740;51.168;4.112;2024-01-30T14:17:55;5.38;;;1.30;;
23142;SDS011;11740;51.168;4.112;2024-01-30T14:20:24;5.47;;;1.60;;
23142;SDS011;11740;51.168;4.112;2024-01-30T14:22:51;9.77;;;1.58;;
23142;SDS011;11740;51.168;4.112;2024-01-30T14:25:23;2.63;;;1.23;;
23142;SDS011;11740;51.168;4.112;2024-01-30T14:27:51;5.88;;;1.25;;
23142;SDS011;11740;51.168;4.112;2024-01-30T14:30:18;4.43;;;1.58;;
23142;SDS011;11740;51.168;4.112;2024-01-30T14:32:46;7.60;;;1.92;;
23142;SDS011;11740;51.168;4.112;2024-01-30T14:35:14;8.40;;;1.88;;
23142;SDS011;11740;51.168;4.112;2024-01-30T14:37:41;5.40;;;1.52;;
23142;SDS011;11740;51.168;4.112;2024-01-30T14:40:09;7.20;;;1.70;;
23142;SDS011;11740;51.168;4.112;2024-01-30T14:42:37;4.43;;;1.58;;
23142;SDS011;11740;51.168;4.112;2024-01-30T14:45:05;5.35;;;1.77;;
23142;SDS011;11740;51.168;4.112;2024-01-30T14:47:33;8.05;;;2.10;;